Aircraft
UPR1037 PT-QAD TBM 850
SBCA
Coronel Adalberto Mendes da Silva Airport
SBCH
Serafin Enoss Bertaso Airport
Pilot:: Klebson
Aircraft:: Black Square TBM 850 UP
Alternate: SBPA
Network: ivao
FLIGHT DETAILS
Distance: 136nm Duration 00h 42m
Cruise Speed: Flight Level: 21000
Validation: Validated Type Charter
Flight Fuel
ZFW: 2332
Block Fuel/Initial FOB: 445
Flight Fuel: 113
Cargo
Passengers: 4
Cargo: 68
ROUTE
ROUTE: AURI1B AURIS GENEG
REMARKS:
DATE
Date: 26-04-23
Departure Time: 1122
Cargo: 68
FLIGHT DETAILS
Crashed: No
Validator Comments: Validado por Rafael
Flight Rating: 99
LANDING ANALYSIS
Landing wind: 89º/6 kt
Landing heading: 117º
Landing VS:: 22 ft/min
Landing IAS:: 83 kt
Landing Force G: 1 G
Landing Bank: -1
Landing Pitch: -5
Landing Flaps: 50
Navigation Lights: OFF
Landing Lights: ON
Beacon Lights: OFF
Strobe Lights: ON
viserfly

ALTITUDE CHART

viserfly

MAIN EVENTS

DATE EVENT IAS ALTITUDE
2026-04-23 11:16:49 FLYacars version 1.3.4 1 2483
2026-04-23 11:16:50 Aircraft boarding in progress 1 2483
2026-04-23 11:16:50 Navigation Lights ON 1 2483
2026-04-23 11:16:50 Strobe Lights ON 1 2483
2026-04-23 11:16:50 Landing Lights ON 1 2483
2026-04-23 11:16:50 Taxi Lights ON 1 2483
2026-04-23 11:16:50 Starting Engine 1 1 2483
2026-04-23 11:19:21 FLAPS 50% 4 2483
2026-04-23 11:19:24 Aircraft taxiing to runway 7 2483
2026-04-23 11:22:03 Detected Take-off roll, HDG 158, IAS 93kt, GS 102kt, G-force 1.0g, Pitch -3.5deg, Bank -0.2deg, Wind 039/03kt, Temp 22°C 93 2476
2026-04-23 11:22:03 Airborne 93 2476
2026-04-23 11:22:03 Beacon lights OFF and engines ON 93 2476
2026-04-23 11:22:03 Incorrect altimeter settings on takeoff 93 2476
2026-04-23 11:22:08 Gear UP, IAS 102kt, GS 111kt, ALT 60ft AGL 102 2527
2026-04-23 11:23:01 FLAPS 0% 126kt, ALT 4039ft 126 4039
2026-04-23 11:25:59 Taxi Lights OFF 173 8598
2026-04-23 11:27:12 Landing Lights OFF 170 10417
2026-04-23 11:34:57 Aircraft on Top Of Climb at 21856ft, IAS 146kt, GS 218kt, HDG 202deg, TAT -11deg, WIND 288/19kt 146 21856
2026-04-23 11:46:51 Aircraft on Top Of Descent at 20499ft, IAS 204kt, GS 301kt, HDG 164deg, TAT -9deg, WIND 285/18kt 204 20499
2026-04-23 11:52:21 Landing Lights ON 138 10218
2026-04-23 12:01:33 Gear DOWN, IAS 143kt, GS 152kt, ALT 1727ft AGL 143 3538
2026-04-23 12:01:51 FLAPS 50% 122kt, ALT 3309ft 122 3309
2026-04-23 12:04:17 Landed at destination with a landing rate of 22fpm, G-force 1.0g, Pitch -5.4deg, Bank -1.0deg, HDG 117deg, IAS 83kt, GS 84kt, Wind 089/06kt, Temp 20°C 83 2121
2026-04-23 12:04:17 Incorrect altimeter settings on landing 83 2121
2026-04-23 12:04:50 Taxi Lights ON 31 2141
2026-04-23 12:05:08 Aircraft taxiing to apron 17 2136
2026-04-23 12:06:54 Aircraft at gate/stand, ground services are moving into position, disembarkation has begun. Remaining FOB 332kg FLYacars v1.3.4 4 2122
viserfly

ACARS DATA

DATE IAS GS ALTITUDE FUEL CONSUMED OAT FLIGHT STATUS
2026-04-23 11:17:19 2 0 2483 1 19 BOARDING
2026-04-23 11:17:49 1 0 2483 1 19 BOARDING
2026-04-23 11:18:19 1 0 2483 2 19 BOARDING
2026-04-23 11:18:49 1 0 2483 2 19 PUSHBACK
2026-04-23 11:19:19 3 1 2483 3 19 PUSHBACK
2026-04-23 11:19:49 20 25 2480 4 22 TAXI TO RUNWAY
2026-04-23 11:20:19 3 4 2482 5 22 TAXI TO RUNWAY
2026-04-23 11:20:49 18 20 2483 5 22 TAXI TO RUNWAY
2026-04-23 11:21:19 0 0 2485 6 22 TAXI TO RUNWAY
2026-04-23 11:21:49 49 55 2483 7 22 TAKEOFF
2026-04-23 11:22:19 97 102 2919 9 22 TAKEOFF
2026-04-23 11:22:49 110 126 3817 10 20 INITIAL CLIMB
2026-04-23 11:23:19 145 164 4531 12 18 CLIMB
2026-04-23 11:23:49 162 183 5317 14 16 CLIMB
2026-04-23 11:24:19 168 192 6089 15 15 CLIMB
2026-04-23 11:24:49 173 198 6848 17 14 CLIMB
2026-04-23 11:25:19 173 200 7600 18 12 CLIMB
2026-04-23 11:25:49 173 203 8347 20 11 CLIMB
2026-04-23 11:26:19 172 204 9097 21 9 CLIMB
2026-04-23 11:26:49 171 205 9842 23 8 CLIMB
2026-04-23 11:27:19 170 206 10589 24 7 CLIMB
2026-04-23 11:27:49 169 207 11336 26 5 CLIMB
2026-04-23 11:28:19 168 208 12084 27 4 CLIMB
2026-04-23 11:28:49 167 209 12830 29 3 CLIMB
2026-04-23 11:29:19 165 211 13576 30 2 CLIMB
2026-04-23 11:29:49 164 212 14323 32 1 CLIMB
2026-04-23 11:30:19 163 213 15069 33 0 CLIMB
2026-04-23 11:30:49 161 214 15815 35 -1 CLIMB
2026-04-23 11:31:19 159 215 16557 36 -2 CLIMB
2026-04-23 11:31:49 157 216 17304 38 -3 CLIMB
2026-04-23 11:32:19 154 216 18048 39 -4 CLIMB
2026-04-23 11:32:49 152 216 18791 41 -5 CLIMB
2026-04-23 11:33:19 150 216 19535 42 -6 CLIMB
2026-04-23 11:33:49 148 216 20279 43 -8 CLIMB
2026-04-23 11:34:19 146 215 21023 45 -10 CLIMB
2026-04-23 11:34:49 143 213 21764 46 -11 CLIMB
2026-04-23 11:35:19 163 243 21873 48 -11 ENROUTE
2026-04-23 11:35:49 179 265 21871 49 -11 ENROUTE
2026-04-23 11:36:19 188 278 21868 50 -11 ENROUTE
2026-04-23 11:36:49 193 285 21869 52 -12 ENROUTE
2026-04-23 11:37:19 196 289 21868 53 -12 ENROUTE
2026-04-23 11:37:49 198 292 21868 55 -12 ENROUTE
2026-04-23 11:38:19 199 293 21866 56 -12 ENROUTE
2026-04-23 11:38:49 199 293 21865 57 -12 ENROUTE
2026-04-23 11:39:19 199 294 21864 59 -12 ENROUTE
2026-04-23 11:39:49 199 294 21863 60 -12 ENROUTE
2026-04-23 11:40:19 199 294 21863 62 -12 ENROUTE
2026-04-23 11:40:49 199 293 21862 63 -12 ENROUTE
2026-04-23 11:41:19 199 293 21863 64 -12 ENROUTE
2026-04-23 11:41:49 199 293 21861 66 -12 ENROUTE
2026-04-23 11:42:19 200 293 21860 67 -12 ENROUTE
2026-04-23 11:42:49 199 293 21860 68 -12 ENROUTE
2026-04-23 11:43:19 198 292 21858 70 -12 ENROUTE
2026-04-23 11:43:49 198 292 21857 71 -12 ENROUTE
2026-04-23 11:44:19 198 301 21854 73 -12 ENROUTE
2026-04-23 11:44:49 198 302 21853 74 -12 ENROUTE
2026-04-23 11:45:19 198 302 21855 75 -12 ENROUTE
2026-04-23 11:45:49 198 302 21855 77 -12 ENROUTE
2026-04-23 11:46:19 205 308 21405 78 -11 DESCENT
2026-04-23 11:46:49 204 301 20555 79 -10 DESCENT
2026-04-23 11:47:19 202 295 19710 80 -8 DESCENT
2026-04-23 11:47:49 202 290 18862 81 -6 DESCENT
2026-04-23 11:48:19 193 271 17943 82 -5 DESCENT
2026-04-23 11:48:49 176 245 16980 83 -3 DESCENT
2026-04-23 11:49:19 170 233 16018 84 -2 DESCENT
2026-04-23 11:49:49 169 226 15065 85 -1 DESCENT
2026-04-23 11:50:19 168 220 14115 85 0 DESCENT
2026-04-23 11:50:49 159 204 13166 86 2 DESCENT
2026-04-23 11:51:19 145 183 12196 87 3 DESCENT
2026-04-23 11:51:49 140 174 11232 88 5 DESCENT
2026-04-23 11:52:19 138 168 10279 88 7 DESCENT
2026-04-23 11:52:49 136 164 9329 89 9 DESCENT
2026-04-23 11:53:19 136 162 8384 90 10 DESCENT
2026-04-23 11:53:49 135 159 7440 91 12 DESCENT
2026-04-23 11:54:19 135 157 6494 91 13 DESCENT
2026-04-23 11:54:49 137 158 5727 92 15 DESCENT
2026-04-23 11:55:19 139 161 5251 93 16 ENROUTE
2026-04-23 11:55:49 126 147 5233 94 16 ENROUTE
2026-04-23 11:56:19 122 142 5241 95 16 ENROUTE
2026-04-23 11:56:49 142 163 5253 96 16 ENROUTE
2026-04-23 11:57:19 153 171 5254 97 16 ENROUTE
2026-04-23 11:57:49 163 181 5068 98 16 DESCENT
2026-04-23 11:58:19 144 159 4728 99 17 ENROUTE
2026-04-23 11:58:49 134 148 4725 100 17 ENROUTE
2026-04-23 11:59:19 133 146 4729 101 17 ENROUTE
2026-04-23 11:59:49 126 139 4738 101 17 ENROUTE
2026-04-23 12:00:19 134 147 4542 102 17 DESCENT
2026-04-23 12:00:49 142 154 4150 103 18 DESCENT
2026-04-23 12:01:19 144 154 3735 104 19 DESCENT
2026-04-23 12:01:49 123 130 3325 105 20 DESCENT
2026-04-23 12:02:19 101 105 3009 106 20 APPROACH
2026-04-23 12:02:49 95 97 2743 107 20 ON FINAL
2026-04-23 12:03:19 94 96 2488 107 20 ON FINAL
2026-04-23 12:03:49 94 93 2240 108 20 ON FINAL
2026-04-23 12:04:19 82 83 2124 109 20 ON FINAL
2026-04-23 12:04:49 31 28 2141 110 20 TAXI TO APRON
2026-04-23 12:05:19 15 22 2133 111 20 TAXI TO APRON
2026-04-23 12:05:49 12 19 2127 111 20 TAXI TO APRON
2026-04-23 12:06:19 15 12 2122 112 20 TAXI TO APRON
2026-04-23 12:06:49 4 0 2122 113 20 TAXI TO APRON
  • Join our VA!

    It has been 11 years of great learning, friendships, and stories.

  • Sign up now!